sensor_id;sensor_type;location;lat;lon;timestamp;temperature;humidity
50989;DHT22;37008;52.210;21.112;2022-12-05T00:00:29;1.20;99.90
50989;DHT22;37008;52.210;21.112;2022-12-05T00:02:54;1.10;99.90
50989;DHT22;37008;52.210;21.112;2022-12-05T00:05:20;1.20;99.90
50989;DHT22;37008;52.210;21.112;2022-12-05T00:07:46;1.10;99.90
50989;DHT22;37008;52.210;21.112;2022-12-05T00:10:12;1.10;99.90
50989;DHT22;37008;52.210;21.112;2022-12-05T00:12:38;1.10;99.90
50989;DHT22;37008;52.210;21.112;2022-12-05T00:15:04;1.10;99.90
50989;DHT22;37008;52.210;21.112;2022-12-05T00:17:31;1.10;99.90
50989;DHT22;37008;52.210;21.112;2022-12-05T00:19:56;1.10;99.90
50989;DHT22;37008;52.210;21.112;2022-12-05T00:22:22;1.10;99.90
50989;DHT22;37008;52.210;21.112;2022-12-05T00:24:47;1.00;99.90
50989;DHT22;37008;52.210;21.112;2022-12-05T00:27:13;1.00;99.90
50989;DHT22;37008;52.210;21.112;2022-12-05T00:29:38;1.00;99.90
50989;DHT22;37008;52.210;21.112;2022-12-05T00:32:04;1.00;99.90
50989;DHT22;37008;52.210;21.112;2022-12-05T00:34:30;1.00;99.90
50989;DHT22;37008;52.210;21.112;2022-12-05T00:36:55;1.00;99.90
50989;DHT22;37008;52.210;21.112;2022-12-05T00:39:21;1.00;99.90
50989;DHT22;37008;52.210;21.112;2022-12-05T00:41:46;1.00;99.90
50989;DHT22;37008;52.210;21.112;2022-12-05T00:44:12;1.00;99.90
50989;DHT22;37008;52.210;21.112;2022-12-05T00:46:38;1.00;99.90
50989;DHT22;37008;52.210;21.112;2022-12-05T00:49:06;1.00;99.90
50989;DHT22;37008;52.210;21.112;2022-12-05T00:51:35;1.00;99.90
50989;DHT22;37008;52.210;21.112;2022-12-05T00:54:03;1.00;99.90
50989;DHT22;37008;52.210;21.112;2022-12-05T00:56:30;1.00;99.90
50989;DHT22;37008;52.210;21.112;2022-12-05T00:58:57;1.00;99.90
50989;DHT22;37008;52.210;21.112;2022-12-05T01:01:32;1.00;99.90
50989;DHT22;37008;52.210;21.112;2022-12-05T01:04:00;1.00;99.90
50989;DHT22;37008;52.210;21.112;2022-12-05T01:06:27;1.00;99.90
50989;DHT22;37008;52.210;21.112;2022-12-05T01:08:54;1.00;99.90
50989;DHT22;37008;52.210;21.112;2022-12-05T01:11:20;1.00;99.90
50989;DHT22;37008;52.210;21.112;2022-12-05T01:13:46;1.00;99.90
50989;DHT22;37008;52.210;21.112;2022-12-05T01:16:14;1.00;99.90
50989;DHT22;37008;52.210;21.112;2022-12-05T01:18:40;1.00;99.90
50989;DHT22;37008;52.210;21.112;2022-12-05T01:21:06;1.00;99.90
50989;DHT22;37008;52.210;21.112;2022-12-05T01:23:31;1.00;99.90
50989;DHT22;37008;52.210;21.112;2022-12-05T01:25:57;1.00;99.90
50989;DHT22;37008;52.210;21.112;2022-12-05T01:28:22;1.00;99.90
50989;DHT22;37008;52.210;21.112;2022-12-05T01:30:49;1.00;99.90
50989;DHT22;37008;52.210;21.112;2022-12-05T01:33:15;1.00;99.90
50989;DHT22;37008;52.210;21.112;2022-12-05T01:35:41;0.90;99.90
50989;DHT22;37008;52.210;21.112;2022-12-05T01:38:09;0.90;99.90
50989;DHT22;37008;52.210;21.112;2022-12-05T01:40:35;0.90;99.90
50989;DHT22;37008;52.210;21.112;2022-12-05T01:43:01;0.90;99.90
50989;DHT22;37008;52.210;21.112;2022-12-05T01:45:39;0.90;99.90
50989;DHT22;37008;52.210;21.112;2022-12-05T01:48:13;0.90;99.90
50989;DHT22;37008;52.210;21.112;2022-12-05T01:50:39;0.90;99.90
50989;DHT22;37008;52.210;21.112;2022-12-05T01:53:05;0.90;99.90
50989;DHT22;37008;52.210;21.112;2022-12-05T01:55:32;0.90;99.90
50989;DHT22;37008;52.210;21.112;2022-12-05T01:57:59;0.90;99.90
50989;DHT22;37008;52.210;21.112;2022-12-05T02:00:26;0.80;99.90
50989;DHT22;37008;52.210;21.112;2022-12-05T02:02:55;0.80;99.90
50989;DHT22;37008;52.210;21.112;2022-12-05T02:05:26;0.80;99.90
50989;DHT22;37008;52.210;21.112;2022-12-05T02:07:52;0.80;99.90
50989;DHT22;37008;52.210;21.112;2022-12-05T02:10:18;0.80;99.90
50989;DHT22;37008;52.210;21.112;2022-12-05T02:12:44;0.90;99.90
50989;DHT22;37008;52.210;21.112;2022-12-05T02:18:31;0.90;99.90
50989;DHT22;37008;52.210;21.112;2022-12-05T02:27:00;0.90;99.90
50989;DHT22;37008;52.210;21.112;2022-12-05T02:41:04;0.80;99.90
50989;DHT22;37008;52.210;21.112;2022-12-05T02:46:23;0.80;99.90
50989;DHT22;37008;52.210;21.112;2022-12-05T02:48:54;0.80;99.90
50989;DHT22;37008;52.210;21.112;2022-12-05T02:51:23;0.80;99.90
50989;DHT22;37008;52.210;21.112;2022-12-05T02:53:50;0.80;99.90
50989;DHT22;37008;52.210;21.112;2022-12-05T02:56:17;0.80;99.90
50989;DHT22;37008;52.210;21.112;2022-12-05T02:58:49;0.80;99.90
50989;DHT22;37008;52.210;21.112;2022-12-05T03:01:18;0.80;99.90
50989;DHT22;37008;52.210;21.112;2022-12-05T03:03:45;0.80;99.90
50989;DHT22;37008;52.210;21.112;2022-12-05T03:06:22;0.80;99.90
50989;DHT22;37008;52.210;21.112;2022-12-05T03:09:02;0.80;99.90
50989;DHT22;37008;52.210;21.112;2022-12-05T03:11:31;0.80;99.90
50989;DHT22;37008;52.210;21.112;2022-12-05T03:13:59;0.80;99.90
50989;DHT22;37008;52.210;21.112;2022-12-05T03:16:31;0.80;99.90
50989;DHT22;37008;52.210;21.112;2022-12-05T03:19:02;0.80;99.90
50989;DHT22;37008;52.210;21.112;2022-12-05T03:21:35;0.80;99.90
50989;DHT22;37008;52.210;21.112;2022-12-05T03:24:07;0.70;99.90
50989;DHT22;37008;52.210;21.112;2022-12-05T03:32:48;0.70;99.90
50989;DHT22;37008;52.210;21.112;2022-12-05T03:38:07;0.70;99.90
50989;DHT22;37008;52.210;21.112;2022-12-05T03:40:52;0.70;99.90
50989;DHT22;37008;52.210;21.112;2022-12-05T03:46:46;0.70;99.90
50989;DHT22;37008;52.210;21.112;2022-12-05T03:52:11;0.70;99.90
50989;DHT22;37008;52.210;21.112;2022-12-05T03:54:48;0.70;99.90
50989;DHT22;37008;52.210;21.112;2022-12-05T04:00:09;0.70;99.90
50989;DHT22;37008;52.210;21.112;2022-12-05T04:02:54;0.70;99.90
50989;DHT22;37008;52.210;21.112;2022-12-05T04:05:50;0.70;99.90
50989;DHT22;37008;52.210;21.112;2022-12-05T04:10:47;0.70;99.90
50989;DHT22;37008;52.210;21.112;2022-12-05T04:13:38;0.70;99.90
50989;DHT22;37008;52.210;21.112;2022-12-05T04:16:10;0.70;99.90
50989;DHT22;37008;52.210;21.112;2022-12-05T04:19:02;0.70;99.90
50989;DHT22;37008;52.210;21.112;2022-12-05T04:21:37;0.70;99.90
50989;DHT22;37008;52.210;21.112;2022-12-05T04:24:11;0.70;99.90
50989;DHT22;37008;52.210;21.112;2022-12-05T04:29:41;0.60;99.90
50989;DHT22;37008;52.210;21.112;2022-12-05T04:32:10;0.60;99.90
50989;DHT22;37008;52.210;21.112;2022-12-05T04:34:37;0.70;99.90
50989;DHT22;37008;52.210;21.112;2022-12-05T04:37:10;0.60;99.90
50989;DHT22;37008;52.210;21.112;2022-12-05T04:39:46;0.70;99.90
50989;DHT22;37008;52.210;21.112;2022-12-05T04:42:19;0.70;99.90
50989;DHT22;37008;52.210;21.112;2022-12-05T04:44:50;0.70;99.90
50989;DHT22;37008;52.210;21.112;2022-12-05T04:47:18;0.60;99.90
50989;DHT22;37008;52.210;21.112;2022-12-05T04:49:46;0.70;99.90
50989;DHT22;37008;52.210;21.112;2022-12-05T04:52:13;0.60;99.90
50989;DHT22;37008;52.210;21.112;2022-12-05T04:54:56;0.60;99.90
50989;DHT22;37008;52.210;21.112;2022-12-05T04:57:28;0.70;99.90
50989;DHT22;37008;52.210;21.112;2022-12-05T04:59:54;0.70;99.90
50989;DHT22;37008;52.210;21.112;2022-12-05T05:02:27;0.60;99.90
50989;DHT22;37008;52.210;21.112;2022-12-05T05:04:57;0.70;99.90
50989;DHT22;37008;52.210;21.112;2022-12-05T05:07:24;0.70;99.90
50989;DHT22;37008;52.210;21.112;2022-12-05T05:09:49;0.70;99.90
50989;DHT22;37008;52.210;21.112;2022-12-05T05:12:15;0.60;99.90
50989;DHT22;37008;52.210;21.112;2022-12-05T05:14:41;0.60;99.90
50989;DHT22;37008;52.210;21.112;2022-12-05T05:17:06;0.60;99.90
50989;DHT22;37008;52.210;21.112;2022-12-05T05:19:32;0.70;99.90
50989;DHT22;37008;52.210;21.112;2022-12-05T05:21:57;0.60;99.90
50989;DHT22;37008;52.210;21.112;2022-12-05T05:24:24;0.70;99.90
50989;DHT22;37008;52.210;21.112;2022-12-05T05:26:51;0.70;99.90
50989;DHT22;37008;52.210;21.112;2022-12-05T05:29:17;0.70;99.90
50989;DHT22;37008;52.210;21.112;2022-12-05T05:31:43;0.70;99.90
50989;DHT22;37008;52.210;21.112;2022-12-05T05:34:10;0.70;99.90
50989;DHT22;37008;52.210;21.112;2022-12-05T05:36:35;0.70;99.90
50989;DHT22;37008;52.210;21.112;2022-12-05T05:39:03;0.70;99.90
50989;DHT22;37008;52.210;21.112;2022-12-05T05:41:33;0.70;99.90
50989;DHT22;37008;52.210;21.112;2022-12-05T05:44:00;0.70;99.90
50989;DHT22;37008;52.210;21.112;2022-12-05T05:46:27;0.70;99.90
50989;DHT22;37008;52.210;21.112;2022-12-05T05:48:53;0.70;99.90
50989;DHT22;37008;52.210;21.112;2022-12-05T05:51:20;0.70;99.90
50989;DHT22;37008;52.210;21.112;2022-12-05T05:53:45;0.70;99.90
50989;DHT22;37008;52.210;21.112;2022-12-05T05:56:13;0.70;99.90
50989;DHT22;37008;52.210;21.112;2022-12-05T05:58:40;0.70;99.90
50989;DHT22;37008;52.210;21.112;2022-12-05T06:01:14;0.70;99.90
50989;DHT22;37008;52.210;21.112;2022-12-05T06:03:40;0.70;99.90
50989;DHT22;37008;52.210;21.112;2022-12-05T06:06:09;0.70;99.90
50989;DHT22;37008;52.210;21.112;2022-12-05T06:08:38;0.70;99.90
50989;DHT22;37008;52.210;21.112;2022-12-05T06:11:05;0.70;99.90
50989;DHT22;37008;52.210;21.112;2022-12-05T06:13:31;0.70;99.90
50989;DHT22;37008;52.210;21.112;2022-12-05T06:15:57;0.70;99.90
50989;DHT22;37008;52.210;21.112;2022-12-05T06:18:22;0.70;99.90
50989;DHT22;37008;52.210;21.112;2022-12-05T06:20:53;0.70;99.90
50989;DHT22;37008;52.210;21.112;2022-12-05T06:23:19;0.70;99.90
50989;DHT22;37008;52.210;21.112;2022-12-05T06:25:52;0.70;99.90
50989;DHT22;37008;52.210;21.112;2022-12-05T06:28:19;0.70;99.90
50989;DHT22;37008;52.210;21.112;2022-12-05T06:30:45;0.70;99.90
50989;DHT22;37008;52.210;21.112;2022-12-05T06:33:12;0.80;99.90
50989;DHT22;37008;52.210;21.112;2022-12-05T06:35:38;0.80;99.90
50989;DHT22;37008;52.210;21.112;2022-12-05T06:38:04;0.80;99.90
50989;DHT22;37008;52.210;21.112;2022-12-05T06:40:30;0.80;99.90
50989;DHT22;37008;52.210;21.112;2022-12-05T06:42:55;0.80;99.90
50989;DHT22;37008;52.210;21.112;2022-12-05T06:45:21;0.80;99.90
50989;DHT22;37008;52.210;21.112;2022-12-05T06:47:47;0.80;99.90
50989;DHT22;37008;52.210;21.112;2022-12-05T06:50:12;0.80;99.90
50989;DHT22;37008;52.210;21.112;2022-12-05T06:52:38;0.80;99.90
50989;DHT22;37008;52.210;21.112;2022-12-05T06:55:04;0.80;99.90
50989;DHT22;37008;52.210;21.112;2022-12-05T06:57:30;0.80;99.90
50989;DHT22;37008;52.210;21.112;2022-12-05T06:59:56;0.80;99.90
50989;DHT22;37008;52.210;21.112;2022-12-05T07:02:40;0.80;99.90
50989;DHT22;37008;52.210;21.112;2022-12-05T07:05:07;0.90;99.90
50989;DHT22;37008;52.210;21.112;2022-12-05T07:07:33;0.80;99.90
50989;DHT22;37008;52.210;21.112;2022-12-05T07:09:58;0.80;99.90
50989;DHT22;37008;52.210;21.112;2022-12-05T07:12:24;0.90;99.90
50989;DHT22;37008;52.210;21.112;2022-12-05T07:14:49;0.90;99.90
50989;DHT22;37008;52.210;21.112;2022-12-05T07:17:19;0.90;99.90
50989;DHT22;37008;52.210;21.112;2022-12-05T07:19:49;0.90;99.90
50989;DHT22;37008;52.210;21.112;2022-12-05T07:22:16;0.90;99.90
50989;DHT22;37008;52.210;21.112;2022-12-05T07:24:43;0.90;99.90
50989;DHT22;37008;52.210;21.112;2022-12-05T07:27:09;0.90;99.90
50989;DHT22;37008;52.210;21.112;2022-12-05T07:29:34;0.90;99.90
50989;DHT22;37008;52.210;21.112;2022-12-05T07:32:00;0.90;99.90
50989;DHT22;37008;52.210;21.112;2022-12-05T07:34:26;1.00;99.90
50989;DHT22;37008;52.210;21.112;2022-12-05T07:36:51;1.00;99.90
50989;DHT22;37008;52.210;21.112;2022-12-05T07:39:17;1.00;99.90
50989;DHT22;37008;52.210;21.112;2022-12-05T07:41:42;1.00;99.90
50989;DHT22;37008;52.210;21.112;2022-12-05T07:44:10;1.00;99.90
50989;DHT22;37008;52.210;21.112;2022-12-05T07:46:37;1.10;99.90
50989;DHT22;37008;52.210;21.112;2022-12-05T07:49:02;1.10;99.90
50989;DHT22;37008;52.210;21.112;2022-12-05T07:51:28;1.10;99.90
50989;DHT22;37008;52.210;21.112;2022-12-05T07:53:53;1.10;99.90
50989;DHT22;37008;52.210;21.112;2022-12-05T07:56:19;1.10;99.90
50989;DHT22;37008;52.210;21.112;2022-12-05T07:58:47;1.10;99.90
50989;DHT22;37008;52.210;21.112;2022-12-05T08:01:15;1.10;99.90
50989;DHT22;37008;52.210;21.112;2022-12-05T08:03:41;1.10;99.90
50989;DHT22;37008;52.210;21.112;2022-12-05T08:06:10;1.10;99.90
50989;DHT22;37008;52.210;21.112;2022-12-05T08:08:37;1.20;99.90
50989;DHT22;37008;52.210;21.112;2022-12-05T08:11:09;1.20;99.90
50989;DHT22;37008;52.210;21.112;2022-12-05T08:13:34;1.20;99.90
50989;DHT22;37008;52.210;21.112;2022-12-05T08:16:14;1.20;99.90
50989;DHT22;37008;52.210;21.112;2022-12-05T08:18:41;1.20;99.90
50989;DHT22;37008;52.210;21.112;2022-12-05T08:21:12;1.20;99.90
50989;DHT22;37008;52.210;21.112;2022-12-05T08:23:39;1.30;99.90
50989;DHT22;37008;52.210;21.112;2022-12-05T08:26:09;1.30;99.90
50989;DHT22;37008;52.210;21.112;2022-12-05T08:28:35;1.30;99.90
50989;DHT22;37008;52.210;21.112;2022-12-05T08:31:10;1.30;99.90
50989;DHT22;37008;52.210;21.112;2022-12-05T08:33:36;1.40;99.90
50989;DHT22;37008;52.210;21.112;2022-12-05T08:36:08;1.30;99.90
50989;DHT22;37008;52.210;21.112;2022-12-05T08:38:34;1.30;99.90
50989;DHT22;37008;52.210;21.112;2022-12-05T08:41:06;1.40;99.90
50989;DHT22;37008;52.210;21.112;2022-12-05T08:43:32;1.40;99.90
50989;DHT22;37008;52.210;21.112;2022-12-05T08:45:58;1.40;99.90
50989;DHT22;37008;52.210;21.112;2022-12-05T08:48:24;1.40;99.90
50989;DHT22;37008;52.210;21.112;2022-12-05T08:50:50;1.40;99.90
50989;DHT22;37008;52.210;21.112;2022-12-05T08:53:16;1.40;99.90
50989;DHT22;37008;52.210;21.112;2022-12-05T08:55:42;1.40;99.90
50989;DHT22;37008;52.210;21.112;2022-12-05T08:58:07;1.40;99.90
50989;DHT22;37008;52.210;21.112;2022-12-05T09:00:33;1.40;99.90
50989;DHT22;37008;52.210;21.112;2022-12-05T09:02:59;1.50;99.90
50989;DHT22;37008;52.210;21.112;2022-12-05T09:05:25;1.50;99.90
50989;DHT22;37008;52.210;21.112;2022-12-05T09:07:51;1.50;99.90
50989;DHT22;37008;52.210;21.112;2022-12-05T09:10:16;1.60;99.90
50989;DHT22;37008;52.210;21.112;2022-12-05T09:12:42;1.60;99.90
50989;DHT22;37008;52.210;21.112;2022-12-05T09:15:10;1.60;99.90
50989;DHT22;37008;52.210;21.112;2022-12-05T09:17:36;1.60;99.90
50989;DHT22;37008;52.210;21.112;2022-12-05T09:20:03;1.50;99.90
50989;DHT22;37008;52.210;21.112;2022-12-05T09:22:29;1.50;99.90
50989;DHT22;37008;52.210;21.112;2022-12-05T09:24:55;1.50;99.90
50989;DHT22;37008;52.210;21.112;2022-12-05T09:27:20;1.50;99.90
50989;DHT22;37008;52.210;21.112;2022-12-05T09:29:46;1.50;99.90
50989;DHT22;37008;52.210;21.112;2022-12-05T09:32:11;1.50;99.90
50989;DHT22;37008;52.210;21.112;2022-12-05T09:34:37;1.50;99.90
50989;DHT22;37008;52.210;21.112;2022-12-05T09:37:04;1.50;99.90
50989;DHT22;37008;52.210;21.112;2022-12-05T09:39:30;1.50;99.90
50989;DHT22;37008;52.210;21.112;2022-12-05T09:45:08;1.50;99.90
50989;DHT22;37008;52.210;21.112;2022-12-05T10:05:40;1.80;99.90
50989;DHT22;37008;52.210;21.112;2022-12-05T10:11:57;1.70;99.90
50989;DHT22;37008;52.210;21.112;2022-12-05T10:17:15;1.80;99.90
50989;DHT22;37008;52.210;21.112;2022-12-05T10:19:47;1.80;99.90
50989;DHT22;37008;52.210;21.112;2022-12-05T10:22:43;1.80;99.90
50989;DHT22;37008;52.210;21.112;2022-12-05T10:25:11;1.80;99.90
50989;DHT22;37008;52.210;21.112;2022-12-05T10:27:46;1.80;99.90
50989;DHT22;37008;52.210;21.112;2022-12-05T10:30:22;1.80;99.90
50989;DHT22;37008;52.210;21.112;2022-12-05T10:32:57;1.90;99.90
50989;DHT22;37008;52.210;21.112;2022-12-05T10:35:35;1.90;99.90
50989;DHT22;37008;52.210;21.112;2022-12-05T10:38:28;1.80;99.90
50989;DHT22;37008;52.210;21.112;2022-12-05T10:40:57;1.80;99.90
50989;DHT22;37008;52.210;21.112;2022-12-05T10:43:28;1.90;99.90
50989;DHT22;37008;52.210;21.112;2022-12-05T10:45:56;1.90;99.90
50989;DHT22;37008;52.210;21.112;2022-12-05T10:48:23;1.90;99.90
50989;DHT22;37008;52.210;21.112;2022-12-05T10:50:52;1.90;99.90
50989;DHT22;37008;52.210;21.112;2022-12-05T10:53:35;2.00;99.90
50989;DHT22;37008;52.210;21.112;2022-12-05T10:56:02;2.00;99.90
50989;DHT22;37008;52.210;21.112;2022-12-05T10:58:28;2.00;99.90
50989;DHT22;37008;52.210;21.112;2022-12-05T11:01:07;2.00;99.90
50989;DHT22;37008;52.210;21.112;2022-12-05T11:03:37;2.00;99.90
50989;DHT22;37008;52.210;21.112;2022-12-05T11:06:21;2.00;99.90
50989;DHT22;37008;52.210;21.112;2022-12-05T11:08:53;2.00;99.90
50989;DHT22;37008;52.210;21.112;2022-12-05T11:11:23;2.00;99.90
50989;DHT22;37008;52.210;21.112;2022-12-05T11:14:03;1.90;99.90
50989;DHT22;37008;52.210;21.112;2022-12-05T11:16:31;1.90;99.90
50989;DHT22;37008;52.210;21.112;2022-12-05T11:19:36;1.90;99.90
50989;DHT22;37008;52.210;21.112;2022-12-05T11:22:05;1.90;99.90
50989;DHT22;37008;52.210;21.112;2022-12-05T11:24:36;1.90;99.90
50989;DHT22;37008;52.210;21.112;2022-12-05T11:29:40;1.90;99.90
50989;DHT22;37008;52.210;21.112;2022-12-05T11:32:20;2.00;99.90
50989;DHT22;37008;52.210;21.112;2022-12-05T11:37:59;2.00;99.90
50989;DHT22;37008;52.210;21.112;2022-12-05T11:41:04;2.00;99.90
50989;DHT22;37008;52.210;21.112;2022-12-05T11:49:13;2.00;99.90
50989;DHT22;37008;52.210;21.112;2022-12-05T11:51:48;2.00;99.90
50989;DHT22;37008;52.210;21.112;2022-12-05T11:56:54;2.00;99.90
50989;DHT22;37008;52.210;21.112;2022-12-05T11:59:41;2.00;99.90
50989;DHT22;37008;52.210;21.112;2022-12-05T12:15:58;2.00;99.90
50989;DHT22;37008;52.210;21.112;2022-12-05T12:18:55;2.00;99.90
50989;DHT22;37008;52.210;21.112;2022-12-05T12:30:19;2.00;99.90
50989;DHT22;37008;52.210;21.112;2022-12-05T12:33:02;1.90;99.90
50989;DHT22;37008;52.210;21.112;2022-12-05T12:38:06;1.90;99.90
50989;DHT22;37008;52.210;21.112;2022-12-05T12:46:13;2.00;99.90
50989;DHT22;37008;52.210;21.112;2022-12-05T12:51:16;2.00;99.90
50989;DHT22;37008;52.210;21.112;2022-12-05T13:02:21;2.10;99.90
50989;DHT22;37008;52.210;21.112;2022-12-05T13:04:53;2.10;99.90
50989;DHT22;37008;52.210;21.112;2022-12-05T13:07:50;2.10;99.90
50989;DHT22;37008;52.210;21.112;2022-12-05T13:10:27;2.10;99.90
50989;DHT22;37008;52.210;21.112;2022-12-05T13:12:56;2.20;99.90
50989;DHT22;37008;52.210;21.112;2022-12-05T13:15:32;2.20;99.90
50989;DHT22;37008;52.210;21.112;2022-12-05T13:18:01;2.20;99.90
50989;DHT22;37008;52.210;21.112;2022-12-05T13:20:30;2.10;99.90
50989;DHT22;37008;52.210;21.112;2022-12-05T13:22:58;2.10;99.90
50989;DHT22;37008;52.210;21.112;2022-12-05T13:25:27;2.10;99.90
50989;DHT22;37008;52.210;21.112;2022-12-05T13:27:58;2.10;99.90
50989;DHT22;37008;52.210;21.112;2022-12-05T13:30:25;2.10;99.90
50989;DHT22;37008;52.210;21.112;2022-12-05T13:32:57;2.10;99.90
50989;DHT22;37008;52.210;21.112;2022-12-05T13:35:30;2.10;99.90
50989;DHT22;37008;52.210;21.112;2022-12-05T13:38:30;2.10;99.90
50989;DHT22;37008;52.210;21.112;2022-12-05T13:41:15;2.00;99.90
50989;DHT22;37008;52.210;21.112;2022-12-05T13:44:01;2.00;99.90
50989;DHT22;37008;52.210;21.112;2022-12-05T13:46:32;2.00;99.90
50989;DHT22;37008;52.210;21.112;2022-12-05T13:49:03;2.00;99.90
50989;DHT22;37008;52.210;21.112;2022-12-05T13:51:38;2.00;99.90
50989;DHT22;37008;52.210;21.112;2022-12-05T13:54:15;2.00;99.90
50989;DHT22;37008;52.210;21.112;2022-12-05T13:56:55;2.00;99.90
50989;DHT22;37008;52.210;21.112;2022-12-05T14:07:49;1.90;99.90
50989;DHT22;37008;52.210;21.112;2022-12-05T14:10:20;1.90;99.90
50989;DHT22;37008;52.210;21.112;2022-12-05T14:12:58;1.90;99.90
50989;DHT22;37008;52.210;21.112;2022-12-05T14:21:06;1.80;99.90
50989;DHT22;37008;52.210;21.112;2022-12-05T14:29:36;1.80;99.90
50989;DHT22;37008;52.210;21.112;2022-12-05T14:39:55;1.80;99.90
50989;DHT22;37008;52.210;21.112;2022-12-05T14:42:40;1.80;99.90
50989;DHT22;37008;52.210;21.112;2022-12-05T14:45:26;1.80;99.90
50989;DHT22;37008;52.210;21.112;2022-12-05T14:50:48;1.80;99.90
50989;DHT22;37008;52.210;21.112;2022-12-05T14:58:49;1.70;99.90
50989;DHT22;37008;52.210;21.112;2022-12-05T15:01:17;1.70;99.90
50989;DHT22;37008;52.210;21.112;2022-12-05T15:06:24;1.70;99.90
50989;DHT22;37008;52.210;21.112;2022-12-05T15:08:54;1.70;99.90
50989;DHT22;37008;52.210;21.112;2022-12-05T15:11:23;1.70;99.90
50989;DHT22;37008;52.210;21.112;2022-12-05T15:13:59;1.70;99.90
50989;DHT22;37008;52.210;21.112;2022-12-05T15:16:27;1.70;99.90
50989;DHT22;37008;52.210;21.112;2022-12-05T15:19:01;1.70;99.90
50989;DHT22;37008;52.210;21.112;2022-12-05T15:21:43;1.70;99.90
50989;DHT22;37008;52.210;21.112;2022-12-05T15:24:15;1.70;99.90
50989;DHT22;37008;52.210;21.112;2022-12-05T15:26:53;1.70;99.90
50989;DHT22;37008;52.210;21.112;2022-12-05T15:32:01;1.70;99.90
50989;DHT22;37008;52.210;21.112;2022-12-05T15:37:42;1.70;99.90
50989;DHT22;37008;52.210;21.112;2022-12-05T15:40:14;1.80;99.90
50989;DHT22;37008;52.210;21.112;2022-12-05T15:47:50;1.70;99.90
50989;DHT22;37008;52.210;21.112;2022-12-05T15:50:24;1.80;99.90
50989;DHT22;37008;52.210;21.112;2022-12-05T15:53:01;1.80;99.90
50989;DHT22;37008;52.210;21.112;2022-12-05T15:55:53;1.80;99.90
50989;DHT22;37008;52.210;21.112;2022-12-05T15:58:28;1.80;99.90
50989;DHT22;37008;52.210;21.112;2022-12-05T16:01:03;1.80;99.90
50989;DHT22;37008;52.210;21.112;2022-12-05T16:03:51;1.80;99.90
50989;DHT22;37008;52.210;21.112;2022-12-05T16:06:21;1.80;99.90
50989;DHT22;37008;52.210;21.112;2022-12-05T16:08:49;1.80;99.90
50989;DHT22;37008;52.210;21.112;2022-12-05T16:11:16;1.80;99.90
50989;DHT22;37008;52.210;21.112;2022-12-05T16:13:55;1.80;99.90
50989;DHT22;37008;52.210;21.112;2022-12-05T16:16:22;1.80;99.90
50989;DHT22;37008;52.210;21.112;2022-12-05T16:18:53;1.80;99.90
50989;DHT22;37008;52.210;21.112;2022-12-05T16:21:36;1.80;99.90
50989;DHT22;37008;52.210;21.112;2022-12-05T16:26:37;1.80;99.90
50989;DHT22;37008;52.210;21.112;2022-12-05T16:29:03;1.80;99.90
50989;DHT22;37008;52.210;21.112;2022-12-05T16:31:31;1.80;99.90
50989;DHT22;37008;52.210;21.112;2022-12-05T16:34:01;1.80;99.90
50989;DHT22;37008;52.210;21.112;2022-12-05T16:36:27;1.80;99.90
50989;DHT22;37008;52.210;21.112;2022-12-05T16:39:01;1.80;99.90
50989;DHT22;37008;52.210;21.112;2022-12-05T16:41:34;1.80;99.90
50989;DHT22;37008;52.210;21.112;2022-12-05T16:44:00;1.80;99.90
50989;DHT22;37008;52.210;21.112;2022-12-05T16:46:41;1.80;99.90
50989;DHT22;37008;52.210;21.112;2022-12-05T16:49:46;1.90;99.90
50989;DHT22;37008;52.210;21.112;2022-12-05T16:54:33;1.90;99.90
50989;DHT22;37008;52.210;21.112;2022-12-05T16:56:59;1.90;99.90
50989;DHT22;37008;52.210;21.112;2022-12-05T16:59:33;1.90;99.90
50989;DHT22;37008;52.210;21.112;2022-12-05T17:02:00;1.90;99.90
50989;DHT22;37008;52.210;21.112;2022-12-05T17:04:27;1.90;99.90
50989;DHT22;37008;52.210;21.112;2022-12-05T17:06:53;1.90;99.90
50989;DHT22;37008;52.210;21.112;2022-12-05T17:09:18;1.90;99.90
50989;DHT22;37008;52.210;21.112;2022-12-05T17:11:45;1.90;99.90
50989;DHT22;37008;52.210;21.112;2022-12-05T17:14:14;1.90;99.90
50989;DHT22;37008;52.210;21.112;2022-12-05T17:16:41;1.90;99.90
50989;DHT22;37008;52.210;21.112;2022-12-05T17:19:07;1.90;99.90
50989;DHT22;37008;52.210;21.112;2022-12-05T17:21:33;2.00;99.90
50989;DHT22;37008;52.210;21.112;2022-12-05T17:24:00;2.00;99.90
50989;DHT22;37008;52.210;21.112;2022-12-05T17:26:25;2.00;99.90
50989;DHT22;37008;52.210;21.112;2022-12-05T17:28:51;2.00;99.90
50989;DHT22;37008;52.210;21.112;2022-12-05T17:31:21;2.00;99.90
50989;DHT22;37008;52.210;21.112;2022-12-05T17:33:48;2.00;99.90
50989;DHT22;37008;52.210;21.112;2022-12-05T17:36:14;2.00;99.90
50989;DHT22;37008;52.210;21.112;2022-12-05T17:38:40;2.00;99.90
50989;DHT22;37008;52.210;21.112;2022-12-05T17:41:07;2.00;99.90
50989;DHT22;37008;52.210;21.112;2022-12-05T17:43:33;2.00;99.90
50989;DHT22;37008;52.210;21.112;2022-12-05T17:45:59;2.00;99.90
50989;DHT22;37008;52.210;21.112;2022-12-05T17:48:25;2.00;99.90
50989;DHT22;37008;52.210;21.112;2022-12-05T17:50:51;2.00;99.90
50989;DHT22;37008;52.210;21.112;2022-12-05T17:53:18;2.00;99.90
50989;DHT22;37008;52.210;21.112;2022-12-05T17:55:45;2.00;99.90
50989;DHT22;37008;52.210;21.112;2022-12-05T17:58:13;2.00;99.90
50989;DHT22;37008;52.210;21.112;2022-12-05T18:00:41;2.00;99.90
50989;DHT22;37008;52.210;21.112;2022-12-05T18:03:12;2.00;99.90
50989;DHT22;37008;52.210;21.112;2022-12-05T18:05:38;2.00;99.90
50989;DHT22;37008;52.210;21.112;2022-12-05T18:08:04;2.00;99.90
50989;DHT22;37008;52.210;21.112;2022-12-05T18:10:29;2.00;99.90
50989;DHT22;37008;52.210;21.112;2022-12-05T18:12:55;2.00;99.90
50989;DHT22;37008;52.210;21.112;2022-12-05T18:15:20;2.00;99.90
50989;DHT22;37008;52.210;21.112;2022-12-05T18:17:46;2.10;99.90
50989;DHT22;37008;52.210;21.112;2022-12-05T18:20:14;2.10;99.90
50989;DHT22;37008;52.210;21.112;2022-12-05T18:22:41;2.10;99.90
50989;DHT22;37008;52.210;21.112;2022-12-05T18:25:07;2.10;99.90
50989;DHT22;37008;52.210;21.112;2022-12-05T18:27:34;2.10;99.90
50989;DHT22;37008;52.210;21.112;2022-12-05T18:30:00;2.10;99.90
50989;DHT22;37008;52.210;21.112;2022-12-05T18:32:25;2.10;99.90
50989;DHT22;37008;52.210;21.112;2022-12-05T18:34:51;2.10;99.90
50989;DHT22;37008;52.210;21.112;2022-12-05T18:37:17;2.10;99.90
50989;DHT22;37008;52.210;21.112;2022-12-05T18:39:43;2.10;99.90
50989;DHT22;37008;52.210;21.112;2022-12-05T18:42:09;2.10;99.90
50989;DHT22;37008;52.210;21.112;2022-12-05T18:44:35;2.20;99.90
50989;DHT22;37008;52.210;21.112;2022-12-05T18:47:00;2.10;99.90
50989;DHT22;37008;52.210;21.112;2022-12-05T18:49:26;2.20;99.90
50989;DHT22;37008;52.210;21.112;2022-12-05T18:51:52;2.20;99.90